Briefing drone pour Sainte-sigolene

Rechercher une autre localisation

Conditions de vol :


Nous sommes le : Jeudi 09 février 2023
Il est 00:11 UTC (01:11 LT)

Lever de soleil : 06:26 UTC (07:26 LT)
Coucher de soleil : 17:27 UTC (18:27 LT)

Météo

L'essentiel des conditions de vol

VIGILANCE MÉTÉO FRANCE - Haute-Loire (43)
Pas de vigilances particulieres
CARTE TEMSI
CARTES DES FRONTS
METAR de LFMH
LFMH 090000Z AUTO 17004KT CAVOK M02/M05 Q1030

Date d'émission: 09/02/2023
Heure d'émission: 00:00 UTC
Vent: 170° pour 4 KT (7 km/h)
Visibilité horizontale: > 10 km
Plafond : Plafond et visibilité OK (CAVOK)
Température: -2 °C
Point de rosée: -5 °C
Humidité: 80%
Pression (QNH): 1030 hPa
TAF de LFMH
LFMH 161901Z 1619/1712 CNL

Conditions prévues :

Heure d'émission : Bulletin éffectué le 16 à 19:00 UTC
Prévision : Valide du 16 a 19:00 UTC au 17 a 12:00 UTC
Nuages : à 0ft (0 m)
WEBCAM POUR SAINTE-SIGOLENE

Réglementation

Voler en sécurité

CARTES AERONAUTIQUE 1/500.000
CARTE AZBA (Reseau basse altitude)
CARTES VAC (LFMH)
SUP AIP




Chargement des AIP...
NOTAM (SAINTE-SIGOLENE + Terrain à proximité / FIR )




Chargement des NOTAMS...
CONTACT PREFECTURE 43
Haute-Loire (43) : [email protected]


Avertissement : Les données mises à disposition sont indicatives. Oxygène Drone ne pourra être tenu responsable de dégâts causés aux biens et aux personnes.